createdAt,value
2022-09-11T00:00:30.764Z,14.78
2022-09-11T00:01:30.775Z,14.77
2022-09-11T00:02:30.818Z,14.77
2022-09-11T00:03:30.729Z,14.73
2022-09-11T00:04:30.759Z,14.72
2022-09-11T00:05:30.705Z,14.70
2022-09-11T00:06:30.785Z,14.70
2022-09-11T00:07:30.673Z,14.72
2022-09-11T00:08:30.665Z,14.70
2022-09-11T00:09:30.654Z,14.69
2022-09-11T00:10:30.637Z,14.70
2022-09-11T00:11:30.614Z,14.68
2022-09-11T00:12:30.618Z,14.68
2022-09-11T00:13:30.621Z,14.65
2022-09-11T00:14:30.570Z,14.62
2022-09-11T00:15:30.566Z,14.64
2022-09-11T00:16:30.597Z,14.61
2022-09-11T00:17:30.567Z,14.57
2022-09-11T00:18:30.523Z,14.55
2022-09-11T00:19:30.526Z,14.52
2022-09-11T00:20:30.507Z,14.51
2022-09-11T00:21:30.501Z,14.50
2022-09-11T00:22:30.471Z,14.50
2022-09-11T00:23:30.458Z,14.47
2022-09-11T00:24:30.464Z,14.46
2022-09-11T00:25:30.428Z,14.46
2022-09-11T00:26:30.422Z,14.45
2022-09-11T00:27:30.464Z,14.40
2022-09-11T00:28:30.393Z,14.40
2022-09-11T00:29:30.371Z,14.40
2022-09-11T00:30:30.395Z,14.37
2022-09-11T00:31:30.511Z,14.33
2022-09-11T00:32:30.331Z,14.32
2022-09-11T00:33:30.322Z,14.28
2022-09-11T00:34:30.336Z,14.28
2022-09-11T00:35:30.292Z,14.28
2022-09-11T00:36:30.296Z,14.27
2022-09-11T00:37:30.272Z,14.28
2022-09-11T00:38:30.271Z,14.28
2022-09-11T00:39:30.236Z,14.29
2022-09-11T00:40:30.208Z,14.29
2022-09-11T00:41:30.207Z,14.25
2022-09-11T00:42:30.219Z,14.25
2022-09-11T00:43:30.170Z,14.32
2022-09-11T00:44:30.174Z,14.32
2022-09-11T00:45:30.206Z,14.29
2022-09-11T00:46:30.136Z,14.32
2022-09-11T00:47:30.188Z,14.27
2022-09-11T00:48:30.152Z,14.29
2022-09-11T00:49:30.107Z,14.28
2022-09-11T00:50:30.086Z,14.32
2022-09-11T00:51:30.085Z,14.32
2022-09-11T00:52:30.081Z,14.33
2022-09-11T00:53:30.075Z,14.28
2022-09-11T00:54:30.068Z,14.29
2022-09-11T00:55:30.022Z,14.27
2022-09-11T00:56:30.023Z,14.24
2022-09-11T00:57:30.023Z,14.25
2022-09-11T00:58:29.990Z,14.39
2022-09-11T00:59:29.976Z,14.46
2022-09-11T01:00:30.142Z,14.45
2022-09-11T01:01:29.947Z,14.43
2022-09-11T01:02:29.939Z,14.40
2022-09-11T01:03:29.921Z,14.33
2022-09-11T01:04:29.938Z,14.25
2022-09-11T01:05:29.898Z,14.22
2022-09-11T01:06:29.884Z,14.18
2022-09-11T01:07:29.866Z,14.15
2022-09-11T01:08:29.851Z,14.09
2022-09-11T01:09:29.830Z,14.07
2022-09-11T01:10:29.833Z,14.07
2022-09-11T01:11:29.820Z,14.04
2022-09-11T01:12:29.811Z,14.03
2022-09-11T01:13:29.776Z,14.02
2022-09-11T01:14:33.766Z,14.00
2022-09-11T01:15:29.778Z,14.02
2022-09-11T01:16:29.830Z,13.99
2022-09-11T01:17:29.740Z,13.99
2022-09-11T01:18:29.712Z,13.97
2022-09-11T01:19:29.696Z,13.97
2022-09-11T01:20:29.706Z,13.96
2022-09-11T01:21:33.925Z,13.99
2022-09-11T01:22:29.645Z,13.96
2022-09-11T01:23:29.647Z,13.96
2022-09-11T01:24:29.639Z,13.92
2022-09-11T01:25:29.610Z,13.95
2022-09-11T01:26:29.636Z,13.92
2022-09-11T01:27:29.594Z,13.95
2022-09-11T01:28:29.574Z,13.92
2022-09-11T01:29:29.556Z,13.95
2022-09-11T01:30:29.552Z,13.95
2022-09-11T01:31:29.574Z,13.95
2022-09-11T01:32:29.513Z,13.97
2022-09-11T01:33:29.508Z,13.99
2022-09-11T01:34:29.503Z,14.00
2022-09-11T01:35:29.478Z,14.00
2022-09-11T01:36:29.483Z,14.02
2022-09-11T01:37:29.599Z,14.04
2022-09-11T01:38:29.449Z,14.03
2022-09-11T01:39:29.434Z,14.06
2022-09-11T01:40:29.405Z,14.06
2022-09-11T01:41:29.393Z,14.10
2022-09-11T01:42:29.386Z,14.10
2022-09-11T01:43:29.380Z,14.12
2022-09-11T01:44:29.377Z,14.29
2022-09-11T01:45:29.377Z,14.36
2022-09-11T01:46:29.349Z,14.39
2022-09-11T01:47:29.334Z,14.40
2022-09-11T01:48:29.305Z,14.45
2022-09-11T01:49:29.382Z,14.62
2022-09-11T01:50:29.265Z,14.68
2022-09-11T01:51:29.287Z,14.70
2022-09-11T01:52:29.285Z,14.77
2022-09-11T01:53:29.262Z,14.92
2022-09-11T01:54:29.237Z,14.98
2022-09-11T01:55:29.205Z,15.07
2022-09-11T01:56:29.206Z,15.07
2022-09-11T01:57:29.170Z,15.17
2022-09-11T01:58:29.215Z,15.17
2022-09-11T01:59:29.149Z,15.21
2022-09-11T02:00:29.196Z,15.25
2022-09-11T02:01:29.136Z,15.29
2022-09-11T02:02:29.145Z,15.31
2022-09-11T02:03:29.099Z,15.31
2022-09-11T02:04:29.073Z,15.27
2022-09-11T02:05:29.081Z,15.25
2022-09-11T02:06:29.056Z,15.21
2022-09-11T02:07:29.030Z,15.16
2022-09-11T02:08:29.065Z,15.13
2022-09-11T02:09:29.018Z,15.11
2022-09-11T02:10:28.994Z,15.14
2022-09-11T02:11:28.982Z,15.14
2022-09-11T02:12:28.976Z,15.11
2022-09-11T02:13:28.940Z,15.13
2022-09-11T02:14:28.961Z,15.14
2022-09-11T02:15:28.918Z,15.13
2022-09-11T02:16:28.949Z,15.13
2022-09-11T02:17:28.895Z,15.11
2022-09-11T02:18:28.890Z,15.10
2022-09-11T02:19:28.883Z,15.06
2022-09-11T02:20:28.889Z,15.03
2022-09-11T02:21:28.869Z,15.02
2022-09-11T02:22:28.848Z,15.01
2022-09-11T02:23:28.846Z,14.99
2022-09-11T02:24:28.843Z,14.96
2022-09-11T02:25:28.809Z,14.96
2022-09-11T02:26:28.806Z,14.92
2022-09-11T02:27:28.752Z,14.92
2022-09-11T02:28:28.798Z,14.91
2022-09-11T02:29:28.741Z,14.91
2022-09-11T02:30:28.763Z,14.88
2022-09-11T02:31:28.777Z,14.88
2022-09-11T02:32:28.725Z,14.88
2022-09-11T02:33:28.693Z,14.83
2022-09-11T02:34:28.678Z,14.80
2022-09-11T02:35:28.677Z,14.80
2022-09-11T02:36:28.688Z,14.80
2022-09-11T02:37:28.639Z,14.78
2022-09-11T02:38:28.620Z,14.80
2022-09-11T02:39:28.613Z,14.77
2022-09-11T02:40:28.610Z,14.81
2022-09-11T02:41:28.568Z,14.86
2022-09-11T02:42:28.615Z,14.94
2022-09-11T02:43:28.570Z,15.02
2022-09-11T02:44:28.539Z,15.02
2022-09-11T02:45:28.577Z,15.06
2022-09-11T02:46:28.553Z,15.03
2022-09-11T02:47:28.503Z,15.09
2022-09-11T02:48:28.483Z,15.11
2022-09-11T02:49:28.479Z,15.10
2022-09-11T02:50:28.461Z,15.10
2022-09-11T02:51:28.465Z,15.11
2022-09-11T02:52:28.464Z,15.10
2022-09-11T02:53:28.409Z,15.07
2022-09-11T02:54:28.413Z,15.07
2022-09-11T02:55:28.402Z,15.07
2022-09-11T02:56:28.387Z,15.07
2022-09-11T02:57:28.377Z,15.07
2022-09-11T02:58:28.378Z,15.03
2022-09-11T02:59:28.346Z,15.01
2022-09-11T03:00:28.334Z,14.98
2022-09-11T03:01:28.371Z,14.98
2022-09-11T03:02:28.339Z,14.98
2022-09-11T03:03:28.297Z,14.96
2022-09-11T03:04:28.298Z,14.99
2022-09-11T03:05:28.268Z,14.98
2022-09-11T03:06:28.259Z,14.92
2022-09-11T03:07:28.227Z,14.91
2022-09-11T03:08:28.267Z,14.89
2022-09-11T03:09:28.209Z,14.91
2022-09-11T03:10:28.209Z,14.91
2022-09-11T03:11:28.181Z,14.91
2022-09-11T03:12:28.202Z,14.94
2022-09-11T03:13:28.172Z,14.89
2022-09-11T03:14:28.144Z,14.89
2022-09-11T03:15:28.127Z,14.91
2022-09-11T03:16:28.182Z,14.89
2022-09-11T03:17:28.130Z,14.92
2022-09-11T03:18:28.092Z,14.89
2022-09-11T03:19:28.109Z,14.91
2022-09-11T03:20:28.069Z,14.92
2022-09-11T03:21:28.048Z,14.92
2022-09-11T03:22:28.086Z,14.92
2022-09-11T03:23:28.006Z,14.89
2022-09-11T03:24:28.013Z,14.89
2022-09-11T03:25:28.004Z,14.88
2022-09-11T03:26:27.972Z,14.86
2022-09-11T03:27:27.960Z,14.86
2022-09-11T03:28:27.967Z,14.84
2022-09-11T03:29:27.968Z,14.83
2022-09-11T03:30:27.947Z,14.81
2022-09-11T03:31:27.943Z,14.83
2022-09-11T03:32:27.917Z,14.81
2022-09-11T03:33:27.883Z,14.80
2022-09-11T03:34:27.885Z,14.81
2022-09-11T03:35:27.885Z,14.81
2022-09-11T03:36:27.843Z,14.88
2022-09-11T03:37:27.830Z,14.91
2022-09-11T03:38:27.818Z,14.94
2022-09-11T03:39:27.807Z,14.94
2022-09-11T03:40:27.811Z,14.95
2022-09-11T03:41:27.788Z,14.98
2022-09-11T03:42:27.755Z,14.95
2022-09-11T03:43:27.736Z,14.98
2022-09-11T03:44:27.727Z,14.98
2022-09-11T03:45:27.770Z,14.95
2022-09-11T03:46:27.751Z,14.94
2022-09-11T03:47:27.672Z,14.92
2022-09-11T03:48:27.698Z,14.92
2022-09-11T03:49:27.681Z,14.91
2022-09-11T03:50:27.658Z,14.91
2022-09-11T03:51:27.651Z,14.91
2022-09-11T03:52:27.800Z,14.92
2022-09-11T03:53:27.613Z,14.91
2022-09-11T03:54:27.603Z,14.89
2022-09-11T03:55:27.568Z,14.91
2022-09-11T03:56:27.602Z,14.92
2022-09-11T03:57:27.555Z,14.91
2022-09-11T03:58:27.560Z,14.88
2022-09-11T03:59:27.531Z,14.88
2022-09-11T04:00:27.527Z,14.86
2022-09-11T04:01:27.492Z,14.86
2022-09-11T04:02:27.537Z,14.84
2022-09-11T04:03:27.472Z,14.84
2022-09-11T04:04:27.471Z,14.86
2022-09-11T04:05:27.484Z,14.86
2022-09-11T04:06:27.430Z,14.88
2022-09-11T04:07:27.430Z,14.86
2022-09-11T04:08:27.416Z,14.86
2022-09-11T04:09:27.405Z,14.89
2022-09-11T04:10:27.398Z,14.86
2022-09-11T04:11:27.380Z,14.89
2022-09-11T04:12:27.367Z,14.91
2022-09-11T04:13:27.341Z,14.88
2022-09-11T04:14:27.325Z,14.91
2022-09-11T04:15:27.305Z,14.92
2022-09-11T04:16:27.329Z,14.91
2022-09-11T04:17:27.312Z,14.88
2022-09-11T04:18:27.307Z,14.91
2022-09-11T04:19:27.264Z,14.89
2022-09-11T04:20:27.263Z,14.86
2022-09-11T04:21:27.221Z,14.84
2022-09-11T04:22:27.232Z,14.88
2022-09-11T04:23:27.242Z,14.89
2022-09-11T04:24:27.205Z,14.89
2022-09-11T04:25:27.194Z,14.88
2022-09-11T04:26:27.193Z,14.86
2022-09-11T04:27:27.164Z,14.86
2022-09-11T04:28:27.138Z,14.86
2022-09-11T04:29:27.150Z,14.84
2022-09-11T04:30:28.086Z,14.88
2022-09-11T04:31:27.293Z,14.84
2022-09-11T04:32:27.115Z,14.84
2022-09-11T04:33:27.093Z,14.86
2022-09-11T04:34:27.080Z,14.88
2022-09-11T04:35:27.059Z,14.89
2022-09-11T04:36:27.150Z,14.88
2022-09-11T04:37:27.049Z,14.89
2022-09-11T04:38:27.014Z,14.89
2022-09-11T04:39:27.007Z,14.88
2022-09-11T04:40:27.006Z,14.88
2022-09-11T04:41:26.985Z,14.89
2022-09-11T04:42:26.998Z,14.88
2022-09-11T04:43:26.941Z,14.84
2022-09-11T04:44:26.940Z,14.89
2022-09-11T04:45:26.922Z,14.89
2022-09-11T04:46:26.909Z,14.91
2022-09-11T04:47:26.879Z,14.94
2022-09-11T04:48:26.898Z,14.92
2022-09-11T04:49:26.865Z,14.89
2022-09-11T04:50:26.877Z,14.91
2022-09-11T04:51:28.943Z,14.89
2022-09-11T04:52:26.837Z,14.89
2022-09-11T04:53:26.807Z,14.89
2022-09-11T04:54:26.801Z,14.89
2022-09-11T04:55:26.774Z,14.88
2022-09-11T04:56:26.785Z,14.86
2022-09-11T04:57:26.754Z,14.86
2022-09-11T04:58:26.724Z,14.83
2022-09-11T04:59:26.732Z,14.84
2022-09-11T05:00:26.735Z,14.88
2022-09-11T05:01:26.704Z,14.89
2022-09-11T05:02:26.757Z,14.86
2022-09-11T05:03:26.739Z,14.86
2022-09-11T05:04:26.744Z,14.86
2022-09-11T05:05:26.641Z,14.89
2022-09-11T05:06:26.670Z,14.89
2022-09-11T05:07:26.635Z,14.86
2022-09-11T05:08:27.565Z,14.81
2022-09-11T05:09:26.596Z,14.84
2022-09-11T05:10:26.585Z,14.84
2022-09-11T05:11:26.569Z,14.84
2022-09-11T05:12:26.580Z,14.84
2022-09-11T05:13:26.561Z,14.84
2022-09-11T05:14:26.535Z,14.86
2022-09-11T05:15:26.520Z,14.84
2022-09-11T05:16:26.511Z,14.84
2022-09-11T05:17:26.486Z,14.86
2022-09-11T05:18:26.508Z,14.86
2022-09-11T05:19:26.505Z,14.89
2022-09-11T05:20:26.445Z,14.89
2022-09-11T05:21:26.449Z,14.91
2022-09-11T05:22:26.447Z,14.92
2022-09-11T05:23:26.397Z,14.91
2022-09-11T05:24:26.413Z,14.89
2022-09-11T05:25:26.376Z,14.92
2022-09-11T05:26:26.352Z,14.92
2022-09-11T05:27:26.343Z,14.94
2022-09-11T05:28:26.361Z,14.96
2022-09-11T05:29:30.386Z,14.98
2022-09-11T05:30:27.342Z,14.96
2022-09-11T05:31:26.353Z,14.98
2022-09-11T05:32:26.325Z,14.98
2022-09-11T05:33:26.294Z,14.96
2022-09-11T05:34:26.282Z,14.95
2022-09-11T05:35:29.259Z,14.95
2022-09-11T05:36:27.239Z,14.99
2022-09-11T05:37:26.243Z,14.98
2022-09-11T05:38:26.279Z,14.96
2022-09-11T05:39:26.198Z,14.98
2022-09-11T05:40:26.204Z,15.01
2022-09-11T05:41:33.678Z,14.98
2022-09-11T05:42:26.149Z,14.99
2022-09-11T05:43:26.126Z,14.99
2022-09-11T05:44:26.112Z,15.01
2022-09-11T05:45:26.179Z,14.96
2022-09-11T05:46:26.105Z,14.99
2022-09-11T05:47:26.067Z,14.99
2022-09-11T05:48:26.070Z,14.99
2022-09-11T05:49:26.070Z,14.98
2022-09-11T05:50:26.031Z,14.98
2022-09-11T05:51:26.053Z,14.98
2022-09-11T05:52:26.034Z,14.96
2022-09-11T05:53:25.996Z,14.95
2022-09-11T05:54:26.002Z,14.95
2022-09-11T05:55:25.980Z,14.96
2022-09-11T05:56:25.964Z,14.98
2022-09-11T05:57:25.943Z,14.96
2022-09-11T05:58:26.010Z,14.95
2022-09-11T05:59:25.914Z,14.94
2022-09-11T06:00:25.924Z,14.92
2022-09-11T06:01:25.954Z,14.94
2022-09-11T06:02:25.932Z,14.95
2022-09-11T06:03:25.865Z,14.95
2022-09-11T06:04:25.842Z,14.96
2022-09-11T06:05:25.849Z,14.96
2022-09-11T06:06:25.820Z,14.96
2022-09-11T06:07:25.817Z,14.98
2022-09-11T06:08:25.797Z,14.98
2022-09-11T06:09:25.780Z,14.99
2022-09-11T06:10:25.767Z,15.01
2022-09-11T06:11:25.776Z,15.06
2022-09-11T06:12:25.738Z,15.07
2022-09-11T06:13:25.731Z,15.09
2022-09-11T06:14:25.716Z,15.02
2022-09-11T06:15:45.616Z,15.02
2022-09-11T06:16:26.761Z,15.09
2022-09-11T06:17:25.699Z,15.07
2022-09-11T06:18:25.658Z,15.11
2022-09-11T06:19:25.649Z,15.13
2022-09-11T06:20:25.627Z,15.10
2022-09-11T06:21:25.629Z,15.09
2022-09-11T06:22:25.630Z,15.10
2022-09-11T06:23:25.642Z,15.11
2022-09-11T06:24:25.590Z,15.10
2022-09-11T06:25:25.566Z,15.14
2022-09-11T06:26:25.563Z,15.13
2022-09-11T06:27:25.542Z,15.16
2022-09-11T06:28:25.520Z,15.19
2022-09-11T06:29:25.532Z,15.17
2022-09-11T06:30:25.601Z,15.19
2022-09-11T06:31:25.590Z,15.19
2022-09-11T06:32:25.477Z,15.21
2022-09-11T06:33:25.472Z,15.20
2022-09-11T06:34:25.525Z,15.23
2022-09-11T06:35:25.466Z,15.23
2022-09-11T06:36:25.421Z,15.28
2022-09-11T06:37:25.407Z,15.27
2022-09-11T06:38:25.397Z,15.29
2022-09-11T06:39:25.433Z,15.34
2022-09-11T06:40:25.412Z,15.36
2022-09-11T06:41:25.355Z,15.35
2022-09-11T06:42:25.328Z,15.36
2022-09-11T06:43:25.334Z,15.38
2022-09-11T06:44:25.309Z,15.43
2022-09-11T06:45:25.340Z,15.46
2022-09-11T06:46:25.300Z,15.43
2022-09-11T06:47:25.279Z,15.43
2022-09-11T06:48:25.250Z,15.43
2022-09-11T06:49:25.251Z,15.43
2022-09-11T06:50:25.309Z,15.46
2022-09-11T06:51:25.222Z,15.49
2022-09-11T06:52:25.229Z,15.47
2022-09-11T06:53:25.184Z,15.50
2022-09-11T06:54:25.181Z,15.50
2022-09-11T06:55:25.161Z,15.51
2022-09-11T06:56:25.187Z,15.50
2022-09-11T06:57:25.133Z,15.46
2022-09-11T06:58:25.199Z,15.47
2022-09-11T06:59:25.114Z,15.47
2022-09-11T07:00:25.101Z,15.46
2022-09-11T07:01:25.238Z,15.46
2022-09-11T07:02:25.090Z,15.51
2022-09-11T07:03:25.060Z,15.56
2022-09-11T07:04:25.070Z,15.57
2022-09-11T07:05:25.036Z,15.57
2022-09-11T07:06:25.025Z,15.57
2022-09-11T07:07:25.027Z,15.57
2022-09-11T07:08:25.230Z,15.53
2022-09-11T07:09:25.009Z,15.50
2022-09-11T07:10:24.957Z,15.49
2022-09-11T07:11:24.982Z,15.49
2022-09-11T07:12:24.939Z,15.53
2022-09-11T07:13:24.946Z,15.51
2022-09-11T07:14:24.908Z,15.54
2022-09-11T07:15:24.917Z,15.54
2022-09-11T07:16:24.912Z,15.57
2022-09-11T07:17:24.966Z,15.54
2022-09-11T07:18:24.877Z,15.50
2022-09-11T07:19:24.885Z,15.56
2022-09-11T07:20:24.842Z,15.59
2022-09-11T07:21:24.811Z,15.65
2022-09-11T07:22:24.796Z,15.69
2022-09-11T07:23:24.789Z,15.76
2022-09-11T07:24:24.789Z,15.72
2022-09-11T07:25:24.775Z,15.72
2022-09-11T07:26:24.765Z,15.74
2022-09-11T07:27:24.735Z,15.75
2022-09-11T07:28:24.714Z,15.68
2022-09-11T07:29:24.728Z,15.68
2022-09-11T07:30:24.737Z,15.69
2022-09-11T07:31:24.715Z,15.69
2022-09-11T07:32:24.657Z,15.71
2022-09-11T07:33:24.673Z,15.74
2022-09-11T07:34:24.642Z,15.83
2022-09-11T07:35:24.626Z,15.82
2022-09-11T07:36:24.612Z,15.82
2022-09-11T07:37:24.616Z,15.82
2022-09-11T07:38:24.590Z,15.83
2022-09-11T07:39:24.583Z,15.82
2022-09-11T07:40:24.587Z,15.83
2022-09-11T07:41:24.558Z,15.78
2022-09-11T07:42:24.557Z,15.78
2022-09-11T07:43:24.529Z,15.80
2022-09-11T07:44:24.518Z,15.75
2022-09-11T07:45:24.725Z,15.78
2022-09-11T07:46:24.628Z,15.76
2022-09-11T07:47:24.494Z,15.80
2022-09-11T07:48:24.503Z,15.76
2022-09-11T07:49:24.482Z,15.76
2022-09-11T07:50:24.443Z,15.82
2022-09-11T07:51:24.522Z,15.83
2022-09-11T07:52:24.722Z,15.84
2022-09-11T07:53:24.412Z,15.84
2022-09-11T07:54:24.408Z,15.83
2022-09-11T07:55:24.392Z,15.80
2022-09-11T07:56:24.357Z,15.75
2022-09-11T07:57:24.351Z,15.75
2022-09-11T07:58:24.352Z,15.76
2022-09-11T07:59:24.332Z,15.78
2022-09-11T08:00:24.313Z,15.76
2022-09-11T08:01:24.373Z,15.75
2022-09-11T08:02:24.302Z,15.72
2022-09-11T08:03:24.256Z,15.75
2022-09-11T08:04:24.251Z,15.78
2022-09-11T08:05:24.235Z,15.82
2022-09-11T08:06:24.227Z,15.82
2022-09-11T08:07:24.206Z,15.76
2022-09-11T08:08:24.212Z,15.76
2022-09-11T08:09:24.194Z,15.76
2022-09-11T08:10:27.681Z,15.78
2022-09-11T08:11:24.154Z,15.78
2022-09-11T08:12:24.158Z,15.78
2022-09-11T08:13:24.118Z,15.80
2022-09-11T08:14:24.118Z,15.83
2022-09-11T08:15:24.088Z,15.82
2022-09-11T08:16:24.096Z,15.82
2022-09-11T08:17:24.065Z,15.86
2022-09-11T08:18:24.045Z,15.84
2022-09-11T08:19:24.106Z,15.84
2022-09-11T08:20:24.060Z,15.83
2022-09-11T08:21:24.010Z,15.82
2022-09-11T08:22:24.116Z,15.82
2022-09-11T08:23:23.998Z,15.82
2022-09-11T08:24:24.183Z,15.76
2022-09-11T08:25:23.953Z,15.76
2022-09-11T08:26:24.018Z,15.74
2022-09-11T08:27:23.939Z,15.69
2022-09-11T08:28:23.955Z,15.71
2022-09-11T08:29:24.036Z,15.71
2022-09-11T08:30:23.894Z,15.71
2022-09-11T08:31:23.920Z,15.65
2022-09-11T08:32:23.906Z,15.68
2022-09-11T08:33:23.842Z,15.65
2022-09-11T08:34:23.829Z,15.69
2022-09-11T08:35:23.825Z,15.64
2022-09-11T08:36:23.892Z,15.62
2022-09-11T08:37:23.807Z,15.62
2022-09-11T08:38:23.780Z,15.68
2022-09-11T08:39:23.765Z,15.74
2022-09-11T08:40:23.748Z,15.76
2022-09-11T08:41:24.027Z,15.76
2022-09-11T08:42:23.748Z,15.75
2022-09-11T08:43:23.722Z,15.74
2022-09-11T08:44:23.731Z,15.74
2022-09-11T08:45:23.757Z,15.72
2022-09-11T08:46:23.655Z,15.74
2022-09-11T08:47:23.710Z,15.75
2022-09-11T08:48:23.783Z,15.76
2022-09-11T08:49:23.662Z,15.65
2022-09-11T08:50:23.610Z,15.65
2022-09-11T08:51:23.609Z,15.67
2022-09-11T08:52:23.592Z,15.67
2022-09-11T08:53:23.602Z,15.67
2022-09-11T08:54:23.575Z,15.72
2022-09-11T08:55:23.553Z,15.75
2022-09-11T08:56:23.546Z,15.80
2022-09-11T08:57:23.533Z,15.83
2022-09-11T08:58:23.543Z,15.82
2022-09-11T08:59:23.508Z,15.78
2022-09-11T09:00:23.567Z,15.78
2022-09-11T09:01:24.130Z,15.82
2022-09-11T09:02:23.485Z,15.86
2022-09-11T09:03:23.462Z,15.84
2022-09-11T09:04:23.458Z,15.90
2022-09-11T09:05:23.427Z,15.96
2022-09-11T09:06:23.405Z,15.87
2022-09-11T09:07:23.391Z,15.75
2022-09-11T09:08:23.406Z,15.76
2022-09-11T09:09:23.438Z,15.76
2022-09-11T09:10:23.341Z,15.84
2022-09-11T09:11:23.329Z,15.89
2022-09-11T09:12:23.335Z,15.93
2022-09-11T09:13:23.321Z,15.93
2022-09-11T09:14:23.342Z,15.96
2022-09-11T09:15:26.242Z,15.94
2022-09-11T09:16:24.280Z,15.84
2022-09-11T09:17:23.267Z,15.83
2022-09-11T09:18:23.251Z,15.82
2022-09-11T09:19:23.251Z,15.83
2022-09-11T09:20:23.255Z,15.87
2022-09-11T09:21:23.211Z,15.89
2022-09-11T09:22:23.199Z,15.93
2022-09-11T09:23:23.182Z,15.96
2022-09-11T09:24:23.844Z,16.00
2022-09-11T09:25:23.174Z,16.02
2022-09-11T09:26:23.150Z,16.05
2022-09-11T09:27:23.150Z,16.05
2022-09-11T09:28:23.140Z,15.97
2022-09-11T09:29:23.092Z,15.94
2022-09-11T09:30:23.084Z,16.01
2022-09-11T09:31:23.147Z,16.05
2022-09-11T09:32:23.068Z,16.07
2022-09-11T09:33:23.059Z,16.00
2022-09-11T09:34:23.023Z,15.96
2022-09-11T09:35:23.024Z,15.93
2022-09-11T09:36:23.011Z,15.90
2022-09-11T09:37:22.992Z,15.87
2022-09-11T09:38:26.893Z,15.87
2022-09-11T09:39:22.970Z,15.92
2022-09-11T09:40:22.988Z,15.96
2022-09-11T09:41:22.960Z,16.05
2022-09-11T09:42:22.932Z,16.02
2022-09-11T09:43:22.902Z,16.01
2022-09-11T09:44:22.903Z,16.08
2022-09-11T09:45:22.882Z,16.12
2022-09-11T09:46:22.872Z,16.12
2022-09-11T09:47:22.881Z,16.12
2022-09-11T09:48:22.862Z,16.20
2022-09-11T09:49:22.866Z,16.31
2022-09-11T09:50:22.817Z,16.38
2022-09-11T09:51:22.804Z,16.43
2022-09-11T09:52:22.824Z,16.49
2022-09-11T09:53:22.811Z,16.56
2022-09-11T09:54:22.752Z,16.63
2022-09-11T09:55:22.752Z,16.70
2022-09-11T09:56:22.739Z,16.73
2022-09-11T09:57:22.756Z,16.76
2022-09-11T09:58:22.714Z,16.75
2022-09-11T09:59:22.720Z,16.76
2022-09-11T10:00:22.967Z,16.79
2022-09-11T10:01:22.796Z,16.81
2022-09-11T10:02:22.694Z,16.81
2022-09-11T10:03:22.660Z,16.89
2022-09-11T10:04:22.640Z,16.85
2022-09-11T10:05:22.888Z,16.83
2022-09-11T10:06:22.717Z,16.83
2022-09-11T10:07:22.608Z,16.76
2022-09-11T10:08:22.581Z,16.76
2022-09-11T10:09:22.554Z,16.82
2022-09-11T10:10:22.581Z,16.88
2022-09-11T10:11:22.540Z,16.97
2022-09-11T10:12:22.540Z,17.00
2022-09-11T10:13:22.515Z,17.00
2022-09-11T10:14:47.201Z,16.96
2022-09-11T10:15:23.517Z,16.94
2022-09-11T10:16:22.548Z,16.85
2022-09-11T10:17:22.467Z,16.81
2022-09-11T10:18:22.437Z,16.81
2022-09-11T10:19:22.435Z,16.76
2022-09-11T10:20:22.446Z,16.73
2022-09-11T10:21:22.435Z,16.75
2022-09-11T10:22:22.390Z,16.82
2022-09-11T10:23:22.369Z,16.88
2022-09-11T10:24:22.377Z,16.94
2022-09-11T10:25:22.338Z,17.04
2022-09-11T10:26:22.340Z,17.12
2022-09-11T10:27:23.660Z,17.15
2022-09-11T10:28:22.349Z,17.23
2022-09-11T10:29:22.291Z,17.37
2022-09-11T10:30:22.288Z,17.48
2022-09-11T10:31:22.341Z,17.51
2022-09-11T10:32:22.258Z,17.44
2022-09-11T10:33:22.270Z,17.46
2022-09-11T10:34:22.235Z,17.43
2022-09-11T10:35:22.214Z,17.49
2022-09-11T10:36:22.211Z,17.54
2022-09-11T10:37:22.192Z,17.54
2022-09-11T10:38:22.174Z,17.52
2022-09-11T10:39:22.183Z,17.52
2022-09-11T10:40:22.163Z,17.58
2022-09-11T10:41:22.198Z,17.63
2022-09-11T10:42:22.119Z,17.59
2022-09-11T10:43:22.120Z,17.59
2022-09-11T10:44:22.125Z,17.48
2022-09-11T10:45:22.105Z,17.44
2022-09-11T10:46:22.076Z,17.51
2022-09-11T10:47:22.065Z,17.51
2022-09-11T10:48:22.049Z,17.58
2022-09-11T10:49:22.037Z,17.70
2022-09-11T10:50:22.016Z,17.81
2022-09-11T10:51:22.002Z,17.90
2022-09-11T10:52:21.999Z,17.99
2022-09-11T10:53:21.995Z,17.81
2022-09-11T10:54:21.990Z,17.48
2022-09-11T10:55:21.932Z,17.44
2022-09-11T10:56:21.927Z,17.37
2022-09-11T10:57:21.918Z,17.34
2022-09-11T10:58:21.909Z,17.30
2022-09-11T10:59:21.916Z,17.23
2022-09-11T11:00:21.922Z,17.25
2022-09-11T11:01:21.928Z,17.30
2022-09-11T11:02:21.880Z,17.28
2022-09-11T11:03:21.834Z,17.30
2022-09-11T11:04:21.831Z,17.44
2022-09-11T11:05:21.825Z,17.56
2022-09-11T11:06:21.829Z,17.62
2022-09-11T11:07:21.793Z,17.79
2022-09-11T11:08:21.773Z,18.03
2022-09-11T11:09:21.754Z,18.26
2022-09-11T11:10:21.802Z,18.51
2022-09-11T11:11:21.743Z,18.75
2022-09-11T11:12:21.739Z,18.88
2022-09-11T11:13:21.715Z,18.95
2022-09-11T11:14:21.705Z,19.10
2022-09-11T11:15:21.683Z,19.16
2022-09-11T11:16:21.761Z,19.14
2022-09-11T11:17:21.645Z,19.23
2022-09-11T11:18:21.697Z,19.06
2022-09-11T11:19:21.633Z,18.90
2022-09-11T11:20:21.615Z,18.72
2022-09-11T11:21:21.597Z,18.50
2022-09-11T11:22:21.608Z,18.48
2022-09-11T11:23:21.575Z,18.37
2022-09-11T11:24:21.568Z,18.12
2022-09-11T11:25:21.550Z,18.17
2022-09-11T11:26:21.538Z,18.23
2022-09-11T11:27:21.630Z,18.25
2022-09-11T11:28:21.573Z,17.95
2022-09-11T11:29:21.529Z,17.78
2022-09-11T11:30:21.480Z,17.74
2022-09-11T11:31:21.540Z,17.95
2022-09-11T11:32:21.472Z,18.15
2022-09-11T11:33:21.458Z,18.27
2022-09-11T11:34:21.447Z,18.44
2022-09-11T11:35:21.422Z,18.54
2022-09-11T11:36:21.404Z,18.39
2022-09-11T11:37:21.395Z,18.30
2022-09-11T11:38:21.374Z,18.45
2022-09-11T11:39:21.368Z,18.50
2022-09-11T11:40:21.388Z,18.66
2022-09-11T11:41:21.335Z,18.85
2022-09-11T11:42:21.325Z,19.07
2022-09-11T11:43:21.315Z,19.16
2022-09-11T11:44:21.294Z,19.32
2022-09-11T11:45:21.287Z,19.36
2022-09-11T11:46:21.301Z,19.31
2022-09-11T11:47:21.256Z,19.23
2022-09-11T11:48:21.244Z,19.22
2022-09-11T11:49:21.247Z,19.22
2022-09-11T11:50:21.226Z,19.00
2022-09-11T11:51:21.240Z,18.66
2022-09-11T11:52:28.761Z,18.66
2022-09-11T11:53:21.183Z,18.55
2022-09-11T11:54:21.185Z,18.48
2022-09-11T11:55:21.176Z,18.37
2022-09-11T11:56:21.178Z,18.41
2022-09-11T11:57:21.141Z,18.48
2022-09-11T11:58:21.122Z,18.50
2022-09-11T11:59:21.092Z,18.63
2022-09-11T12:00:21.097Z,18.84
2022-09-11T12:01:21.097Z,18.90
2022-09-11T12:02:21.111Z,18.91
2022-09-11T12:03:21.100Z,18.88
2022-09-11T12:04:21.052Z,18.75
2022-09-11T12:05:21.022Z,18.80
2022-09-11T12:06:21.018Z,18.80
2022-09-11T12:07:21.000Z,18.85
2022-09-11T12:08:21.013Z,18.94
2022-09-11T12:09:21.006Z,19.02
2022-09-11T12:10:20.946Z,19.13
2022-09-11T12:11:20.979Z,19.21
2022-09-11T12:12:20.956Z,19.26
2022-09-11T12:13:20.931Z,19.29
2022-09-11T12:14:20.904Z,19.25
2022-09-11T12:15:20.895Z,19.26
2022-09-11T12:16:20.954Z,19.36
2022-09-11T12:17:20.851Z,19.32
2022-09-11T12:18:20.893Z,19.40
2022-09-11T12:19:21.331Z,19.50
2022-09-11T12:20:20.821Z,19.59
2022-09-11T12:21:20.812Z,19.69
2022-09-11T12:22:20.811Z,19.76
2022-09-11T12:23:20.777Z,19.78
2022-09-11T12:24:20.787Z,19.98
2022-09-11T12:25:20.771Z,20.18
2022-09-11T12:26:20.737Z,20.20
2022-09-11T12:27:20.802Z,20.29
2022-09-11T12:28:20.712Z,19.76
2022-09-11T12:29:20.718Z,19.78
2022-09-11T12:30:20.737Z,19.94
2022-09-11T12:31:20.714Z,19.92
2022-09-11T12:32:20.688Z,19.94
2022-09-11T12:33:20.683Z,20.10
2022-09-11T12:34:20.649Z,20.47
2022-09-11T12:35:20.656Z,20.58
2022-09-11T12:36:20.664Z,20.94
2022-09-11T12:37:20.596Z,20.64
2022-09-11T12:38:20.598Z,20.79
2022-09-11T12:39:20.582Z,21.10
2022-09-11T12:40:20.558Z,21.17
2022-09-11T12:41:20.542Z,21.28
2022-09-11T12:42:20.555Z,21.77
2022-09-11T12:43:20.594Z,21.56
2022-09-11T12:44:20.530Z,21.69
2022-09-11T12:45:20.485Z,21.58
2022-09-11T12:46:20.491Z,21.58
2022-09-11T12:47:20.477Z,21.24
2022-09-11T12:48:20.507Z,21.03
2022-09-11T12:49:23.011Z,20.80
2022-09-11T12:50:20.423Z,20.59
2022-09-11T12:51:20.416Z,20.55
2022-09-11T12:52:20.441Z,20.95